N514DV CFA4-CEZ5
Flight info
| Callsign | N514DV |
|---|---|
| Flight time | 0h 22m |
| Altitude | 4500 |
| Route | VFR NORTHBOUND |
| Aircraft | PA24/L-SDF/L |
Departure
| Time | 2026-04-14 23:47 |
|---|---|
| Airport | Carcross Airport (CFA4) |
Arrival
| Time | 2026-04-15 00:10 |
|---|---|
| Airport | Whitehorse Seaplane Base (CEZ5) |
| Time | Latitude | Longitude | Altitude | Speed | Heading |
|---|---|---|---|---|---|
| 2026-04-14 22:56 | 60.17353 | -134.70406 | 2184 ft | 0 kts | 201° |
| 2026-04-14 23:45 | 60.17352 | -134.70407 | 2281 ft | 2 kts | 201° |
| 2026-04-14 23:46 | 60.17328 | -134.70426 | 2280 ft | 1 kts | 205° |
| 2026-04-14 23:46 | 60.17300 | -134.70458 | 2280 ft | 2 kts | 212° |
| 2026-04-14 23:46 | 60.17296 | -134.70462 | 2281 ft | 0 kts | 212° |
| 2026-04-14 23:46 | 60.17290 | -134.70411 | 2280 ft | 15 kts | 73° |
| 2026-04-14 23:47 | 60.17381 | -134.69749 | 2277 ft | 79 kts | 74° |
| 2026-04-14 23:47 | 60.17480 | -134.68676 | 2522 ft | 72 kts | 74° |
| 2026-04-14 23:47 | 60.17574 | -134.67654 | 2722 ft | 76 kts | 64° |
| 2026-04-14 23:47 | 60.17923 | -134.66881 | 2939 ft | 77 kts | 18° |
| 2026-04-14 23:48 | 60.18455 | -134.66822 | 3165 ft | 80 kts | 336° |
| 2026-04-14 23:48 | 60.18871 | -134.67613 | 3374 ft | 90 kts | 295° |
| 2026-04-14 23:48 | 60.18966 | -134.68895 | 3638 ft | 98 kts | 274° |
| 2026-04-14 23:48 | 60.18855 | -134.70299 | 3906 ft | 103 kts | 253° |
| 2026-04-14 23:49 | 60.18259 | -134.71179 | 3984 ft | 124 kts | 188° |
| 2026-04-14 23:49 | 60.17456 | -134.70497 | 4107 ft | 133 kts | 133° |
| 2026-04-14 23:49 | 60.16910 | -134.68839 | 3906 ft | 150 kts | 117° |
| 2026-04-14 23:49 | 60.16405 | -134.66932 | 3726 ft | 158 kts | 115° |
| 2026-04-14 23:50 | 60.15856 | -134.65015 | 3603 ft | 158 kts | 122° |
| 2026-04-14 23:50 | 60.15126 | -134.63371 | 3485 ft | 159 kts | 138° |
| 2026-04-14 23:50 | 60.14265 | -134.61992 | 3518 ft | 153 kts | 144° |
| 2026-04-14 23:50 | 60.13569 | -134.60788 | 4020 ft | 131 kts | 120° |
| 2026-04-14 23:51 | 60.13828 | -134.59068 | 3460 ft | 162 kts | 21° |
| 2026-04-14 23:51 | 60.14731 | -134.59696 | 3715 ft | 141 kts | 310° |
| 2026-04-14 23:51 | 60.15025 | -134.61668 | 3208 ft | 160 kts | 281° |
| 2026-04-14 23:51 | 60.15379 | -134.63741 | 3072 ft | 151 kts | 298° |
| 2026-04-14 23:52 | 60.15817 | -134.65565 | 3031 ft | 142 kts | 299° |
| 2026-04-14 23:52 | 60.16311 | -134.67180 | 3036 ft | 129 kts | 308° |
| 2026-04-14 23:52 | 60.16893 | -134.68458 | 3064 ft | 122 kts | 317° |
| 2026-04-14 23:52 | 60.17488 | -134.69613 | 3068 ft | 117 kts | 317° |
| 2026-04-14 23:53 | 60.18077 | -134.70704 | 3112 ft | 111 kts | 321° |
| 2026-04-14 23:53 | 60.18692 | -134.71562 | 3202 ft | 108 kts | 333° |
| 2026-04-14 23:53 | 60.19393 | -134.72197 | 3294 ft | 113 kts | 340° |
| 2026-04-14 23:53 | 60.20152 | -134.72679 | 3449 ft | 112 kts | 345° |
| 2026-04-14 23:54 | 60.20892 | -134.73059 | 3659 ft | 108 kts | 346° |
| 2026-04-14 23:54 | 60.21612 | -134.73396 | 3859 ft | 107 kts | 346° |
| 2026-04-14 23:54 | 60.22346 | -134.73753 | 4017 ft | 110 kts | 346° |
| 2026-04-14 23:54 | 60.23097 | -134.74064 | 4186 ft | 111 kts | 349° |
| 2026-04-14 23:55 | 60.23860 | -134.74358 | 4321 ft | 114 kts | 345° |
| 2026-04-14 23:55 | 60.24627 | -134.74774 | 4465 ft | 117 kts | 343° |
| 2026-04-14 23:55 | 60.25409 | -134.75256 | 4577 ft | 117 kts | 342° |
| 2026-04-14 23:55 | 60.26192 | -134.75737 | 4645 ft | 119 kts | 342° |
| 2026-04-14 23:56 | 60.27018 | -134.76145 | 4695 ft | 124 kts | 348° |
| 2026-04-14 23:56 | 60.27860 | -134.76470 | 4805 ft | 125 kts | 349° |
| 2026-04-14 23:56 | 60.28740 | -134.76722 | 4777 ft | 130 kts | 352° |
| 2026-04-14 23:56 | 60.29666 | -134.76884 | 4738 ft | 136 kts | 354° |
| 2026-04-14 23:57 | 60.30597 | -134.77000 | 4796 ft | 133 kts | 356° |
| 2026-04-14 23:57 | 60.31517 | -134.77071 | 4804 ft | 133 kts | 356° |
| 2026-04-14 23:57 | 60.32454 | -134.77113 | 4798 ft | 136 kts | 358° |
| 2026-04-14 23:57 | 60.33408 | -134.77059 | 4744 ft | 139 kts | 2° |
| 2026-04-14 23:58 | 60.34380 | -134.76855 | 4699 ft | 141 kts | 3° |
| 2026-04-14 23:58 | 60.35385 | -134.76779 | 4597 ft | 146 kts | 358° |
| 2026-04-14 23:58 | 60.36379 | -134.76898 | 4598 ft | 140 kts | 351° |
| 2026-04-14 23:58 | 60.37334 | -134.77325 | 4568 ft | 141 kts | 342° |
| 2026-04-14 23:59 | 60.38237 | -134.78041 | 4559 ft | 139 kts | 332° |
| 2026-04-14 23:59 | 60.39030 | -134.79161 | 4504 ft | 139 kts | 323° |
| 2026-04-14 23:59 | 60.39928 | -134.80003 | 4300 ft | 150 kts | 345° |
| 2026-04-14 23:59 | 60.40966 | -134.80407 | 4152 ft | 147 kts | 345° |
| 2026-04-15 00:00 | 60.41855 | -134.81092 | 4294 ft | 132 kts | 332° |
| 2026-04-15 00:00 | 60.42695 | -134.81984 | 4223 ft | 133 kts | 334° |
| 2026-04-15 00:00 | 60.43412 | -134.82918 | 4525 ft | 116 kts | 316° |
| 2026-04-15 00:00 | 60.43944 | -134.84212 | 4517 ft | 120 kts | 310° |
| 2026-04-15 00:01 | 60.44491 | -134.85549 | 4402 ft | 128 kts | 313° |
| 2026-04-15 00:01 | 60.45054 | -134.86899 | 4521 ft | 121 kts | 315° |
| 2026-04-15 00:01 | 60.45744 | -134.87821 | 4577 ft | 120 kts | 330° |
| 2026-04-15 00:01 | 60.46509 | -134.88649 | 4608 ft | 131 kts | 340° |
| 2026-04-15 00:02 | 60.47375 | -134.89218 | 4801 ft | 126 kts | 343° |
| 2026-04-15 00:02 | 60.48205 | -134.89686 | 5018 ft | 124 kts | 345° |
| 2026-04-15 00:02 | 60.49043 | -134.90024 | 5295 ft | 113 kts | 353° |
| 2026-04-15 00:02 | 60.49744 | -134.90470 | 5635 ft | 105 kts | 326° |
| 2026-04-15 00:03 | 60.50381 | -134.91389 | 5715 ft | 120 kts | 328° |
| 2026-04-15 00:03 | 60.51137 | -134.92216 | 5826 ft | 126 kts | 338° |
| 2026-04-15 00:03 | 60.51989 | -134.92807 | 5895 ft | 133 kts | 344° |
| 2026-04-15 00:03 | 60.52890 | -134.93314 | 5912 ft | 134 kts | 347° |
| 2026-04-15 00:04 | 60.53782 | -134.93712 | 5912 ft | 133 kts | 349° |
| 2026-04-15 00:04 | 60.54692 | -134.94159 | 5835 ft | 136 kts | 345° |
| 2026-04-15 00:04 | 60.55604 | -134.94743 | 5729 ft | 138 kts | 340° |
| 2026-04-15 00:04 | 60.56525 | -134.95423 | 5623 ft | 139 kts | 340° |
| 2026-04-15 00:05 | 60.57422 | -134.96129 | 5448 ft | 143 kts | 338° |
| 2026-04-15 00:05 | 60.58338 | -134.96903 | 5266 ft | 142 kts | 339° |
| 2026-04-15 00:05 | 60.59268 | -134.97649 | 5078 ft | 143 kts | 338° |
| 2026-04-15 00:05 | 60.60185 | -134.98413 | 4749 ft | 140 kts | 337° |
| 2026-04-15 00:06 | 60.61074 | -134.99153 | 4437 ft | 132 kts | 337° |
| 2026-04-15 00:06 | 60.61896 | -134.99779 | 4247 ft | 119 kts | 339° |
| 2026-04-15 00:06 | 60.62615 | -135.00309 | 3873 ft | 104 kts | 340° |
| 2026-04-15 00:06 | 60.63281 | -135.00792 | 3588 ft | 96 kts | 338° |
| 2026-04-15 00:07 | 60.63880 | -135.01254 | 3437 ft | 91 kts | 339° |
| 2026-04-15 00:07 | 60.64472 | -135.01722 | 3307 ft | 93 kts | 339° |
| 2026-04-15 00:07 | 60.65072 | -135.02195 | 3209 ft | 93 kts | 339° |
| 2026-04-15 00:07 | 60.65668 | -135.02662 | 3105 ft | 93 kts | 339° |
| 2026-04-15 00:08 | 60.66271 | -135.03136 | 3017 ft | 93 kts | 340° |
| 2026-04-15 00:08 | 60.66887 | -135.03605 | 2904 ft | 96 kts | 341° |
| 2026-04-15 00:08 | 60.67514 | -135.04076 | 2784 ft | 95 kts | 340° |
| 2026-04-15 00:08 | 60.68103 | -135.04531 | 2688 ft | 84 kts | 341° |
| 2026-04-15 00:09 | 60.68604 | -135.04924 | 2621 ft | 73 kts | 342° |
| 2026-04-15 00:09 | 60.69078 | -135.05287 | 2512 ft | 74 kts | 342° |
| 2026-04-15 00:09 | 60.69558 | -135.05657 | 2380 ft | 74 kts | 342° |
| 2026-04-15 00:09 | 60.70005 | -135.05993 | 2298 ft | 64 kts | 341° |
| 2026-04-15 00:10 | 60.70369 | -135.06279 | 2280 ft | 49 kts | 342° |
| 2026-04-15 00:10 | 60.70631 | -135.06479 | 2278 ft | 32 kts | 340° |
| 2026-04-15 00:10 | 60.70821 | -135.06630 | 2278 ft | 29 kts | 340° |
| 2026-04-15 00:10 | 60.71014 | -135.06778 | 2281 ft | 31 kts | 339° |
| 2026-04-15 00:11 | 60.71201 | -135.06923 | 2280 ft | 20 kts | 338° |
| 2026-04-15 00:11 | 60.71242 | -135.06959 | 2280 ft | 7 kts | 335° |
| 2026-04-15 00:11 | 60.71261 | -135.07042 | 2283 ft | 14 kts | 256° |
| 2026-04-15 00:11 | 60.71235 | -135.07198 | 2282 ft | 11 kts | 287° |
| 2026-04-15 00:12 | 60.71290 | -135.07275 | 2282 ft | 12 kts | 345° |
| 2026-04-15 00:12 | 60.71354 | -135.07327 | 2281 ft | 7 kts | 296° |
| 2026-04-15 00:12 | 60.71336 | -135.07451 | 2282 ft | 6 kts | 257° |
| 2026-04-15 00:12 | 60.71339 | -135.07462 | 2282 ft | 0 kts | 344° |